Nearby METAR Reports

METAR is the scheduled surface weather observation taken hourly at civil and military airport locations.

METAR is an acronym from the French language and roughly translates as Aviation Routine Weather Report.

 

EGPL - Benbecula Island, United Kingdom
Distance from station: WNW 41mi, 66km
Updated: 22/05/2018 08:20
Few Clouds
Few Clouds
 Wind from ENE
Wind: ENE 18 mph , 30 km/h
Temperature: 9°C
Wind Chill: 5°C
Dew Point: 5°C
Humidity: 76%
Barometer: 1026 hPa
Clouds: Few Clouds
Visibility: 6 miles , 10 km
Cloud details: Few Clouds 549 m
2018/05/22 07:20 EGPL 220720Z 07016KT 9999 FEW018 09/05 Q1026
EGPU - Tiree Island, United Kingdom
Distance from station: SSW 56mi, 90km
Updated: 22/05/2018 08:20
Few Clouds
Few Clouds
 Wind from NNE
Wind: NNE 17 mph , 28 km/h
Temperature: 9°C
Wind Chill: 6°C
Dew Point: 6°C
Humidity: 82%
Barometer: 1024 hPa
Clouds: Few Clouds
Visibility: 6 miles , 10 km
Cloud details: Few Clouds 1067 m
2018/05/22 07:20 EGPU 220720Z AUTO 03015KT 9999 FEW035/// 09/06 Q1024
 
EGEO - Oban Airport, United Kingdom
Distance from station: SE 65mi, 105km
Updated: 11/05/2018 15:20
NOT Current
Light drizzle, Overcast
Light drizzle, Overcast
 Wind from S
Wind: S 17 mph , 28 km/h
Temperature: 12°C
Dew Point: 6°C
Humidity: 67%
Barometer: 1006 hPa
Summary: Light Drizzle
Clouds: Overcast
Visibility: 5 miles , 8 km
Cloud details: Overcast 1280 m
2018/05/11 14:20 EGEO 111420Z 17015KT 8000 -DZ OVC042 12/06 Q1006
EGPO - Stornoway, United Kingdom
Distance from station: 0 66mi, 106km
Updated: 22/05/2018 08:20
Few Clouds
Few Clouds
 Wind from ENE
Wind: ENE 12 mph , 19 km/h
Temperature: 8°C
Wind Chill: 4°C
Dew Point: 6°C
Humidity: 87%
Barometer: 1027 hPa
Clouds: Few Clouds
Visibility: 6 miles , 10 km
Cloud details: Few Clouds 549 m
2018/05/22 07:20 EGPO 220720Z 07010KT 9999 FEW018 08/06 Q1027
 
EGPE - Inverness/Dalcro, United Kingdom
Distance from station: ENE 88mi, 141km
Updated: 22/05/2018 08:20
Nearby showers, Mostly cloudy
Nearby showers, Mostly cloudy
 Wind from NE
Wind: NE 13 mph , 20 km/h
Temperature: 8°C
Wind Chill: 4°C
Dew Point: 8°C
Humidity: 100%
Barometer: 1027 hPa
Summary: Nearby Showers
Clouds: Mostly cloudy
Visibility: 6 miles , 10 km
Cloud details: Few Clouds 335 m
Partly cloudy 457 m
Mostly cloudy 671 m
2018/05/22 07:20 EGPE 220720Z 05011KT 9999 9000SW VCSH FEW011 SCT015 BKN022 08/08 Q1027
EGQA - Tain Range (saws, United Kingdom
Distance from station: ENE 97mi, 156km
Updated: 21/05/2018 14:50
NOT Current
Rain drizzle, Overcast
Rain drizzle, Overcast
 Wind from NW
Wind: NW 12 mph , 19 km/h
Summary: Rain Drizzle
Clouds: Overcast
Visibility: 2 miles , 4 km
Cloud details: Partly cloudy 122 m
Overcast 457 m
2018/05/21 13:50 EGQA 211350Z 31010KT 4000 RADZ SCT004 OVC015 12/// Q1020 YLO2
 
EGQK - Kinloss Raf, United Kingdom
Distance from station: ENE 107mi, 171km
Updated: 22/05/2018 07:50
Mostly cloudy
Mostly cloudy
 Wind from NE
Wind: NE 13 mph , 20 km/h
Temperature: 8°C
Wind Chill: 4°C
Dew Point: 6°C
Humidity: 87%
Barometer: 1027 hPa
Clouds: Mostly cloudy
Visibility: 6 miles , 10 km
Cloud details: Mostly cloudy 366 m
2018/05/22 06:50 EGQK 220650Z AUTO 04011KT 9999 BKN012/// 08/06 Q1027 RERA
EGPI - Islay/Port Ellen, United Kingdom
Distance from station: S 110mi, 177km
Updated: 22/05/2018 08:20
Mostly cloudy
Mostly cloudy
 Wind from varies
Wind: varies 3 mph , 6 km/h
Temperature: 10°C
Dew Point: 8°C
Humidity: 88%
Barometer: 1023 hPa
Clouds: Mostly cloudy
Visibility: 6 miles , 10 km
Cloud details: Mostly cloudy 396 m
2018/05/22 07:20 EGPI 220720Z VRB03KT 9999 BKN013 10/08 Q1023
 
EGQS - Lossiemouth Raf, United Kingdom
Distance from station: ENE 117mi, 188km
Updated: 22/05/2018 07:50
Light rain, Overcast
Light rain, Overcast
 Wind from NE
Wind: NE 14 mph , 22 km/h
Temperature: 8°C
Wind Chill: 4°C
Dew Point: 6°C
Humidity: 87%
Barometer: 1027 hPa
Summary: Light rain
Clouds: Overcast
Visibility: 6 miles , 10 km
Cloud details: Few Clouds 152 m
Mostly cloudy 488 m
Overcast 610 m
2018/05/22 06:50 EGQS 220650Z 04012KT 9999 -RA FEW005 BKN016 OVC020 08/06 Q1027 WHT TEMPO 4000 -RADZ BKN010 GRN
EGPF - Glasgow Airport, United Kingdom
Distance from station: SE 121mi, 195km
Updated: 22/05/2018 08:20
Overcast
Overcast
 Wind from ENE
Wind: ENE 13 mph , 20 km/h
Temperature: 11°C
Dew Point: 7°C
Humidity: 77%
Barometer: 1024 hPa
Clouds: Overcast
Visibility: 6 miles , 10 km
Cloud details: Mostly cloudy 549 m
Overcast 1463 m
2018/05/22 07:20 EGPF 220720Z AUTO 07011KT 9999 BKN018 OVC048 11/07 Q1024
 
EGEC - Campbeltown, United Kingdom
Distance from station: SSE 129mi, 207km
Updated: 22/05/2018 08:20
Mostly cloudy
Mostly cloudy
 Wind from E
Wind: E 15 mph , 24 km/h
Temperature: 11°C
Dew Point: 8°C
Humidity: 82%
Barometer: 1022 hPa
Clouds: Mostly cloudy
Visibility: 6 miles , 10 km
Cloud details: Few Clouds 610 m
Mostly cloudy 1372 m
2018/05/22 07:20 EGEC 220720Z 09013KT 9999 FEW020 BKN045 11/08 Q1022
EGPN - Dundee/Riverside, United Kingdom
Distance from station: ESE 137mi, 221km
Updated: 22/05/2018 08:20
Few Clouds
Few Clouds
 Wind from NE
Wind: NE 12 mph , 19 km/h
Temperature: 12°C
Dew Point: 6°C
Humidity: 67%
Barometer: 1024 hPa
Clouds: Few Clouds
Visibility: 6 miles , 10 km
Cloud details: Few Clouds 457 m
2018/05/22 07:20 EGPN 220720Z 05010KT 020V080 9999 FEW015 12/06 Q1024
 
EGPK - Prestwick(Civ/Na, United Kingdom
Distance from station: SSE 139mi, 224km
Updated: 22/05/2018 08:20
Partly cloudy
Partly cloudy
 Wind from ENE
Wind: ENE 8 mph , 13 km/h
Temperature: 11°C
Dew Point: 6°C
Humidity: 72%
Barometer: 1024 hPa
Clouds: Partly cloudy
Visibility: 6 miles , 10 km
Cloud details: Partly cloudy 762 m
2018/05/22 07:20 EGPK 220720Z 07007KT 9999 SCT025 11/06 Q1024
EGQL - Leuchars Raf, United Kingdom
Distance from station: ESE 145mi, 233km
Updated: 22/05/2018 07:50
Partly cloudy
Partly cloudy
 Wind from ENE
Wind: ENE 10 mph , 17 km/h
Temperature: 10°C
Wind Chill: 8°C
Dew Point: 6°C
Humidity: 76%
Barometer: 1024 hPa
Clouds: Partly cloudy
Visibility: 6 miles , 10 km
Cloud details: Mostly cloudy 1402 m
Partly cloudy 3658 m
2018/05/22 06:50 EGQL 220650Z 06009KT 9999 BKN046 SCT120 10/06 Q1024 BLU
 
EGPH - Edinburgh Airpor, United Kingdom
Distance from station: SE 145mi, 234km
Updated: 22/05/2018 08:20
Partly cloudy
Partly cloudy
 Wind from E
Wind: E 15 mph , 24 km/h
Temperature: 10°C
Wind Chill: 7°C
Dew Point: 6°C
Humidity: 76%
Barometer: 1024 hPa
Clouds: Partly cloudy
Visibility: 6 miles , 10 km
Cloud details: Partly cloudy 549 m
2018/05/22 07:20 EGPH 220720Z 08013KT 9999 SCT018 10/06 Q1024
EGPC - Wick, United Kingdom
Distance from station: NE 146mi, 234km
Updated: 22/05/2018 08:20
Mostly cloudy
Mostly cloudy
 Wind from NE
Wind: NE 15 mph , 24 km/h
Temperature: 9°C
Wind Chill: 6°C
Dew Point: 6°C
Humidity: 82%
Barometer: 1027 hPa
Clouds: Mostly cloudy
Visibility: 6 miles , 10 km
Cloud details: Partly cloudy 640 m
Mostly cloudy 1280 m
2018/05/22 07:20 EGPC 220720Z 04013KT 9999 SCT021 BKN042 09/06 Q1027

-

free counters
QR Code Twitter Scottish Weather Network UK Weather Network
Argyll House B & B

Argyll House B & B is situated in North West Skye and is the perfect base to see all that the Isle of Skye has to offer.
We are now full for 2018 - Bookings been taken for 2019.